Time;durP1;ratioP1;P1;durP2;ratioP2;P2;SDS_P1;SDS_P2;PMS_P1;PMS_P2;Temp;Humidity;BMP_temperature;BMP_pressure;BME280_temperature;BME280_humidity;BME280_pressure;Samples;Min_cycle;Max_cycle;Signal;HPM_P1;HPM_P2
2022/05/30 00:01:42;;;;;;;2.30;2.20;;;11.50;99.20;;;11.88;nan;100160.56;5002907;28;21206;-67
2022/05/30 00:04:09;;;;;;;2.10;2.00;;;11.40;99.50;;;11.88;nan;100159.72;4996336;28;20670;-67
2022/05/30 00:06:36;;;;;;;2.17;2.07;;;11.40;99.60;;;11.88;nan;100157.13;4992986;28;20636;-67
2022/05/30 00:09:03;;;;;;;2.00;1.90;;;11.40;99.80;;;11.86;nan;100154.59;5008777;28;20669;-66
2022/05/30 00:11:31;;;;;;;2.30;2.20;;;11.40;99.90;;;11.84;nan;100153.91;5005410;28;20628;-66
2022/05/30 00:13:58;;;;;;;2.23;2.10;;;11.40;99.90;;;11.86;nan;100161.66;5014225;28;20667;-69
2022/05/30 00:16:25;;;;;;;2.70;2.50;;;11.40;99.90;;;11.86;nan;100151.19;4992286;28;20634;-66
2022/05/30 00:18:52;;;;;;;2.27;2.17;;;11.40;99.90;;;11.79;nan;100147.44;4990154;28;20639;-66
2022/05/30 00:21:22;;;;;;;2.00;1.90;;;11.30;99.90;;;11.78;nan;100151.81;5005167;28;20676;-66
2022/05/30 00:23:53;;;;;;;2.27;2.07;;;11.30;99.90;;;11.75;nan;100144.25;5009809;28;20661;-67
2022/05/30 00:26:24;;;;;;;2.00;1.90;;;11.30;99.90;;;11.74;nan;100144.38;4982155;28;20635;-69
2022/05/30 00:28:52;;;;;;;2.10;2.00;;;11.30;99.90;;;11.69;nan;100147.38;4996323;28;21568;-66
2022/05/30 00:31:21;;;;;;;1.40;1.40;;;11.20;99.90;;;11.61;nan;100140.16;5009595;28;21215;-66
2022/05/30 00:33:49;;;;;;;2.07;1.90;;;11.20;99.90;;;11.51;nan;100146.28;5003557;28;20715;-67
2022/05/30 00:36:17;;;;;;;2.23;2.03;;;11.10;99.90;;;11.56;nan;100139.69;4993122;28;21023;-68
2022/05/30 00:38:44;;;;;;;1.77;1.67;;;11.10;99.90;;;11.53;nan;100145.19;4991478;28;20637;-67
2022/05/30 00:41:11;;;;;;;1.90;1.80;;;11.10;99.90;;;11.51;nan;100138.44;4993286;28;20637;-67
2022/05/30 00:43:44;;;;;;;2.50;2.00;;;11.10;99.90;;;11.52;nan;100145.31;5009751;28;21258;-69
2022/05/30 00:46:12;;;;;;;1.57;1.47;;;11.10;99.90;;;11.45;nan;100129.34;5009859;28;20617;-67
2022/05/30 00:48:55;;;;;;;2.13;2.03;;;11.00;99.90;;;11.51;nan;100133.19;4983696;28;20746;-67
2022/05/30 00:51:32;;;;;;;1.77;1.70;;;11.10;99.90;;;11.51;nan;100134.03;4993075;28;20854;-66
2022/05/30 00:54:01;;;;;;;2.43;1.80;;;11.10;99.90;;;11.48;nan;100128.22;4981529;28;20688;-68
2022/05/30 00:56:36;;;;;;;2.23;2.13;;;11.00;99.90;;;11.46;nan;100130.13;4990609;28;20615;-66
2022/05/30 00:59:04;;;;;;;2.07;1.97;;;11.00;99.90;;;11.36;nan;100127.47;5008183;28;20645;-68
2022/05/30 01:01:34;;;;;;;4.87;1.90;;;11.00;99.90;;;11.37;nan;100120.47;4990971;28;20653;-64
2022/05/30 01:06:53;;;;;;;2.10;2.00;;;10.90;99.90;;;11.34;nan;100125.94;4994039;28;20644;-67
2022/05/30 01:09:34;;;;;;;2.00;1.90;;;10.90;99.90;;;11.29;nan;100125.47;4978763;28;20669;-67
2022/05/30 01:12:06;;;;;;;1.70;1.60;;;10.90;99.90;;;11.26;nan;100123.97;4975996;28;21095;-67
2022/05/30 01:14:40;;;;;;;2.53;2.40;;;10.80;99.90;;;11.22;nan;100119.13;5007743;28;20673;-68
2022/05/30 01:17:13;;;;;;;2.17;1.97;;;10.80;99.90;;;11.17;nan;100123.91;5010521;28;20906;-66
2022/05/30 01:19:59;;;;;;;2.40;2.30;;;10.70;99.90;;;11.10;nan;100117.50;5006056;28;21188;-67
2022/05/30 01:23:14;;;;;;;1.63;1.63;;;10.70;99.90;;;11.01;nan;100113.06;4991180;28;21010;-67
2022/05/30 01:25:58;;;;;;;2.73;2.53;;;10.60;99.90;;;11.02;nan;100109.47;4989973;28;20666;-66
2022/05/30 01:28:45;;;;;;;2.70;2.50;;;10.60;99.90;;;11.00;nan;100111.41;5005315;28;20637;-68
2022/05/30 01:31:14;;;;;;;2.13;2.00;;;10.70;99.90;;;10.90;nan;100111.34;4992830;28;20642;-67
2022/05/30 01:33:42;;;;;;;2.50;2.40;;;10.50;99.90;;;10.91;nan;100103.38;4972879;28;20646;-67
2022/05/30 01:36:09;;;;;;;2.50;2.40;;;10.60;99.90;;;10.92;nan;100098.97;5005616;28;20711;-67
2022/05/30 01:38:37;;;;;;;3.03;2.80;;;10.60;99.90;;;10.87;nan;100101.97;4992536;28;21035;-68
2022/05/30 01:41:04;;;;;;;2.30;2.20;;;10.60;99.90;;;10.87;nan;100107.19;5000526;28;20645;-68
2022/05/30 01:43:31;;;;;;;2.20;2.10;;;10.50;99.90;;;10.90;nan;100112.13;5011672;28;20625;-67
2022/05/30 01:46:09;;;;;;;2.40;2.20;;;10.60;99.90;;;10.85;nan;100109.09;5012024;28;21016;-67
2022/05/30 01:48:36;;;;;;;3.60;2.60;;;10.50;99.90;;;10.79;nan;100098.31;4995570;28;20665;-68
2022/05/30 01:51:03;;;;;;;2.10;2.00;;;10.40;99.90;;;10.82;nan;100104.09;5010739;28;20633;-67
2022/05/30 01:53:31;;;;;;;2.70;2.60;;;10.40;99.90;;;10.78;nan;100102.69;5013939;28;20612;-66
2022/05/30 01:55:58;;;;;;;2.60;2.50;;;10.40;99.90;;;10.78;nan;100102.69;5005277;28;20642;-67
2022/05/30 01:58:25;;;;;;;2.53;2.20;;;10.40;99.90;;;10.75;nan;100102.94;4993066;28;20618;-65
2022/05/30 02:00:52;;;;;;;2.10;2.00;;;10.40;99.90;;;10.73;nan;100097.00;4982735;28;20640;-67
2022/05/30 02:03:19;;;;;;;2.57;2.37;;;10.30;99.90;;;10.72;nan;100089.31;4999582;28;20641;-66
2022/05/30 02:05:46;;;;;;;3.03;2.73;;;10.30;99.90;;;10.76;nan;100085.50;4980240;28;20688;-67
2022/05/30 02:08:18;;;;;;;2.60;2.50;;;10.40;99.90;;;10.81;nan;100085.97;5000901;28;20629;-68
2022/05/30 02:10:45;;;;;;;2.77;2.57;;;10.40;99.90;;;10.77;nan;100088.00;4991931;28;21156;-66
2022/05/30 02:13:12;;;;;;;2.33;2.20;;;10.40;99.90;;;10.81;nan;100089.41;5010329;28;20751;-67
2022/05/30 02:18:25;;;;;;;2.50;2.30;;;10.40;99.90;;;10.83;nan;100082.28;4994708;28;20621;-67
2022/05/30 02:20:52;;;;;;;2.00;1.90;;;10.50;99.90;;;10.80;nan;100074.69;5000644;28;21041;-67
2022/05/30 02:23:19;;;;;;;2.60;2.40;;;10.40;99.90;;;10.81;nan;100081.59;4994553;28;20638;-67
2022/05/30 02:25:46;;;;;;;3.53;2.37;;;10.40;99.90;;;10.83;nan;100078.84;5008089;28;20649;-66
2022/05/30 02:28:13;;;;;;;2.27;2.17;;;10.40;99.90;;;10.77;nan;100077.56;5003172;28;20633;-68
2022/05/30 02:30:40;;;;;;;2.47;2.30;;;10.40;99.90;;;10.76;nan;100078.50;5009790;28;21056;-66
2022/05/30 02:38:37;;;;;;;3.47;2.90;;;10.40;99.90;;;10.73;nan;100076.13;4992421;28;20622;-67
2022/05/30 02:41:04;;;;;;;2.70;2.50;;;10.30;99.90;;;10.67;nan;100068.81;4998825;28;20628;-67
2022/05/30 02:43:31;;;;;;;3.20;2.80;;;10.30;99.90;;;10.67;nan;100070.59;5013179;28;21186;-68
2022/05/30 02:45:58;;;;;;;2.83;2.63;;;10.30;99.90;;;10.59;nan;100063.41;5011649;28;20626;-66
2022/05/30 02:48:26;;;;;;;3.00;2.80;;;10.20;99.90;;;10.62;nan;100068.38;5011575;28;20641;-65
2022/05/30 02:50:53;;;;;;;2.90;2.60;;;10.30;99.90;;;10.59;nan;100068.63;4991520;28;21066;-67
2022/05/30 02:53:19;;;;;;;2.80;2.60;;;10.20;99.90;;;10.64;nan;100069.09;5011649;28;20656;-69
2022/05/30 02:55:46;;;;;;;3.30;3.00;;;10.20;99.90;;;10.60;nan;100070.28;5004423;28;20625;-68
2022/05/30 02:58:13;;;;;;;2.80;2.60;;;10.20;99.90;;;10.58;nan;100074.81;5011963;28;20715;-67
2022/05/30 03:00:40;;;;;;;3.73;2.93;;;10.20;99.90;;;10.58;nan;100079.19;5013066;28;20636;-67
2022/05/30 03:03:07;;;;;;;4.47;2.70;;;10.20;99.90;;;10.63;nan;100074.41;5004404;28;21118;-68
2022/05/30 03:05:37;;;;;;;3.33;3.03;;;10.30;99.90;;;10.63;nan;100077.00;5011078;28;20665;-67
2022/05/30 03:08:07;;;;;;;3.37;2.43;;;10.20;99.90;;;10.63;nan;100077.84;5011655;28;20637;-67
2022/05/30 03:10:34;;;;;;;2.90;2.70;;;10.20;99.90;;;10.64;nan;100079.53;4976458;28;20677;-67
2022/05/30 03:13:01;;;;;;;2.97;2.60;;;10.20;99.90;;;10.67;nan;100087.06;4991550;28;20638;-67
2022/05/30 03:15:28;;;;;;;4.83;2.90;;;10.30;99.90;;;10.65;nan;100091.59;4997330;28;20673;-67
2022/05/30 03:17:55;;;;;;;4.77;2.73;;;10.30;99.90;;;10.61;nan;100090.19;5005309;28;20638;-67
2022/05/30 03:20:23;;;;;;;4.60;2.70;;;10.20;99.90;;;10.59;nan;100101.69;5010005;28;20639;-67
2022/05/30 03:22:51;;;;;;;3.50;3.10;;;10.20;99.90;;;10.62;nan;100101.47;4998693;28;20638;-67
2022/05/30 03:25:18;;;;;;;3.23;2.90;;;10.20;99.90;;;10.56;nan;100094.94;5012424;28;20650;-69
2022/05/30 03:27:45;;;;;;;4.80;3.33;;;10.20;99.90;;;10.51;nan;100104.09;5010211;28;20634;-68
2022/05/30 03:30:14;;;;;;;5.70;3.03;;;10.10;99.90;;;10.51;nan;100099.72;5009543;28;20676;-69
2022/05/30 03:32:43;;;;;;;3.70;3.40;;;10.20;99.90;;;10.49;nan;100109.44;4998231;28;20634;-69
2022/05/30 03:35:11;;;;;;;2.60;2.40;;;10.10;99.90;;;10.52;nan;100106.56;4992309;28;20704;-72
2022/05/30 03:37:40;;;;;;;2.53;2.37;;;10.20;99.90;;;10.53;nan;100117.84;5011135;28;20610;-70
2022/05/30 03:40:14;;;;;;;2.23;2.03;;;10.10;99.90;;;10.48;nan;100114.75;5011010;28;20625;-69
2022/05/30 03:42:41;;;;;;;2.80;2.60;;;10.10;99.90;;;10.55;nan;100119.38;4991366;28;20646;-67
2022/05/30 03:45:09;;;;;;;3.47;3.17;;;10.10;99.90;;;10.44;nan;100119.41;4991085;28;21014;-70
2022/05/30 03:47:39;;;;;;;3.63;3.33;;;10.10;99.90;;;10.42;nan;100121.31;5004921;28;20649;-70
2022/05/30 03:50:10;;;;;;;4.60;3.67;;;10.00;99.90;;;10.51;nan;100119.75;4999720;28;20674;-66
2022/05/30 03:52:37;;;;;;;3.80;3.50;;;10.20;99.90;;;10.49;nan;100121.66;5006740;28;20640;-67
2022/05/30 03:55:11;;;;;;;5.83;4.27;;;10.20;99.90;;;10.49;nan;100117.25;5004825;28;20700;-67
2022/05/30 03:57:43;;;;;;;4.00;3.60;;;10.20;99.90;;;10.47;nan;100120.94;5002109;28;20628;-67
2022/05/30 04:00:18;;;;;;;3.30;3.10;;;10.20;99.90;;;10.36;nan;100119.19;5009360;28;20656;-66
2022/05/30 04:02:47;;;;;;;4.90;3.70;;;10.10;99.90;;;10.35;nan;100120.13;5009766;28;20640;-67
2022/05/30 04:05:19;;;;;;;3.27;2.97;;;10.10;99.90;;;10.29;nan;100111.94;5008860;28;20871;-66
2022/05/30 04:07:47;;;;;;;3.73;3.40;;;9.90;99.90;;;10.26;nan;100123.47;5010335;28;20652;-69
2022/05/30 04:10:14;;;;;;;3.60;3.30;;;9.90;99.90;;;10.25;nan;100129.63;5002098;28;20673;-67
2022/05/30 04:12:42;;;;;;;3.83;3.37;;;9.90;99.90;;;10.33;nan;100127.22;5007168;28;20636;-67
2022/05/30 04:15:17;;;;;;;3.40;2.90;;;9.90;99.90;;;10.31;nan;100134.34;5024778;23;20704;-64
2022/05/30 04:17:45;;;;;;;2.83;2.57;;;10.00;99.90;;;10.32;nan;100136.03;4991226;28;20637;-64
2022/05/30 04:20:12;;;;;;;3.40;3.10;;;10.00;99.90;;;10.42;nan;100142.16;4991723;28;20625;-65
2022/05/30 04:22:39;;;;;;;4.30;2.87;;;10.00;99.90;;;10.45;nan;100144.53;4991230;28;20642;-64
2022/05/30 04:25:07;;;;;;;3.50;3.20;;;10.10;99.90;;;10.43;nan;100140.41;4985754;28;20658;-65
2022/05/30 04:27:34;;;;;;;3.90;3.50;;;10.10;99.90;;;10.56;nan;100149.72;5009076;28;20655;-66
2022/05/30 04:30:02;;;;;;;4.87;3.70;;;10.20;99.90;;;10.64;nan;100142.13;5007137;28;20665;-66
2022/05/30 04:32:29;;;;;;;3.73;3.40;;;10.30;99.90;;;10.77;nan;100145.44;5005844;28;20637;-66
2022/05/30 04:34:56;;;;;;;3.87;3.27;;;10.40;99.90;;;11.08;nan;100141.16;5009291;28;20672;-66
2022/05/30 04:37:23;;;;;;;3.63;3.33;;;10.80;99.90;;;11.44;nan;100145.13;4992207;28;21025;-66
2022/05/30 04:39:53;;;;;;;8.53;4.07;;;11.20;99.90;;;11.88;nan;100150.09;5008508;28;20753;-66
2022/05/30 04:42:20;;;;;;;3.80;3.50;;;11.70;99.90;;;12.21;nan;100136.75;5009711;28;20621;-66
2022/05/30 04:44:47;;;;;;;3.70;3.23;;;12.00;99.90;;;12.48;nan;100147.44;5007593;28;20688;-66
2022/05/30 04:47:14;;;;;;;4.33;3.30;;;12.30;99.90;;;12.73;nan;100151.34;4991732;28;20621;-66
2022/05/30 04:49:41;;;;;;;3.30;3.10;;;12.60;99.90;;;12.87;nan;100157.97;4982784;28;20677;-66
2022/05/30 04:52:09;;;;;;;4.00;3.20;;;12.70;99.90;;;13.12;nan;100155.69;4973651;28;20978;-67
2022/05/30 04:54:36;;;;;;;3.57;3.00;;;12.90;99.90;;;13.32;nan;100148.66;4997044;28;20661;-65
2022/05/30 04:57:03;;;;;;;4.63;3.50;;;13.10;99.90;;;13.59;nan;100159.22;5008341;28;21055;-65
2022/05/30 04:59:30;;;;;;;3.93;3.20;;;13.40;99.90;;;13.83;nan;100156.97;5008252;28;21008;-65
2022/05/30 05:01:57;;;;;;;2.67;2.43;;;13.70;99.90;;;14.10;nan;100161.41;5008250;28;20657;-65
2022/05/30 05:04:24;;;;;;;2.90;2.70;;;13.90;99.90;;;14.42;nan;100158.41;5005620;28;21258;-65
2022/05/30 05:06:52;;;;;;;2.70;2.50;;;14.20;99.90;;;14.68;nan;100170.72;4978502;28;20658;-65
2022/05/30 05:09:40;;;;;;;2.77;2.23;;;14.50;99.70;;;14.88;nan;100176.69;4974381;28;20641;-65
2022/05/30 05:12:08;;;;;;;6.33;2.23;;;14.70;99.10;;;14.92;nan;100175.41;5008407;28;20637;-65
2022/05/30 05:14:36;;;;;;;2.10;2.00;;;14.80;98.70;;;15.19;nan;100179.75;4989916;28;20664;-65
2022/05/30 05:17:06;;;;;;;2.57;2.20;;;15.00;98.40;;;15.41;nan;100180.13;5009581;28;20640;-66
2022/05/30 05:19:33;;;;;;;2.50;2.30;;;15.20;97.90;;;15.44;nan;100176.38;4976492;28;20700;-65
2022/05/30 05:22:00;;;;;;;2.47;2.37;;;15.30;97.50;;;15.61;nan;100178.16;4985489;28;20771;-65
2022/05/30 05:24:28;;;;;;;1.63;1.47;;;15.50;97.20;;;15.82;nan;100181.25;5008181;28;21221;-65
2022/05/30 05:26:55;;;;;;;2.03;1.90;;;15.60;96.90;;;16.08;nan;100176.00;4995427;28;20636;-65
2022/05/30 05:29:22;;;;;;;2.90;2.67;;;15.90;96.50;;;15.80;nan;100182.44;4997646;28;20633;-65
2022/05/30 05:31:51;;;;;;;2.13;2.03;;;15.70;95.80;;;15.96;nan;100178.09;4995065;28;20656;-65
2022/05/30 05:34:18;;;;;;;2.57;2.37;;;15.70;96.00;;;15.98;nan;100170.84;5012306;28;20681;-65
2022/05/30 05:36:47;;;;;;;2.87;2.67;;;15.80;96.10;;;16.00;nan;100182.06;5012928;28;20668;-65
2022/05/30 05:39:17;;;;;;;2.50;2.40;;;15.80;95.90;;;16.03;nan;100173.88;5011543;28;21206;-65
2022/05/30 05:41:46;;;;;;;2.57;2.30;;;15.90;95.50;;;16.25;nan;100177.72;4995568;28;20617;-65
2022/05/30 05:44:15;;;;;;;2.30;2.20;;;16.10;95.50;;;16.62;nan;100180.91;4995036;28;20633;-66
2022/05/30 05:46:43;;;;;;;2.10;2.00;;;16.40;94.90;;;16.75;nan;100176.00;4975784;28;20626;-65
2022/05/30 05:49:10;;;;;;;2.03;1.93;;;16.70;94.40;;;17.16;nan;100186.63;4982388;28;21334;-65
2022/05/30 05:51:38;;;;;;;2.83;2.60;;;17.00;94.40;;;17.58;nan;100184.69;4994127;28;20684;-65
2022/05/30 05:54:09;;;;;;;2.77;2.33;;;17.40;93.20;;;17.85;nan;100179.03;4994170;28;20644;-65
2022/05/30 05:56:36;;;;;;;2.43;2.23;;;17.70;92.50;;;18.05;nan;100182.97;4994960;28;20644;-65
2022/05/30 05:59:04;;;;;;;2.20;2.10;;;17.90;92.00;;;18.26;nan;100174.50;4990092;28;20642;-65
2022/05/30 06:01:33;;;;;;;2.23;2.13;;;18.10;91.70;;;18.67;nan;100183.09;5010007;28;20637;-65
2022/05/30 06:04:07;;;;;;;1.80;1.70;;;18.40;91.10;;;19.02;nan;100187.84;4993905;28;20637;-65
2022/05/30 06:06:34;;;;;;;2.40;1.90;;;18.80;90.40;;;19.72;nan;100196.47;4978265;28;20665;-65
2022/05/30 06:09:05;;;;;;;2.67;2.47;;;19.60;88.70;;;20.26;nan;100186.47;5008334;28;20737;-65
2022/05/30 06:11:34;;;;;;;3.17;2.30;;;20.20;85.30;;;20.89;nan;100197.28;4993591;28;21321;-65
2022/05/30 06:14:01;;;;;;;2.00;1.90;;;20.80;83.50;;;21.34;nan;100193.47;4994506;28;20625;-65
2022/05/30 06:16:31;;;;;;;3.17;2.70;;;21.30;81.10;;;22.03;nan;100197.16;4989956;28;20669;-65
2022/05/30 06:19:01;;;;;;;2.33;2.13;;;22.00;79.00;;;22.61;nan;100196.69;4993517;28;20707;-65
2022/05/30 06:21:32;;;;;;;2.50;2.40;;;22.60;75.90;;;22.61;nan;100194.03;4997845;28;20641;-65
2022/05/30 06:24:01;;;;;;;2.37;2.27;;;22.50;74.00;;;22.95;nan;100193.94;5008840;28;20630;-65
2022/05/30 06:26:28;;;;;;;2.53;2.23;;;22.80;72.70;;;22.99;nan;100195.19;5009545;28;20676;-67
2022/05/30 06:28:55;;;;;;;2.00;1.90;;;22.80;70.90;;;23.65;nan;100205.94;5010913;28;21194;-65
2022/05/30 06:31:28;;;;;;;2.47;2.27;;;23.40;70.10;;;24.64;nan;100205.56;5004549;28;21225;-66
2022/05/30 06:33:58;;;;;;;3.50;3.20;;;24.40;67.60;;;25.51;nan;100201.47;4998687;28;20633;-66
2022/05/30 06:36:25;;;;;;;1.90;1.80;;;25.50;64.30;;;26.20;nan;100210.09;4992594;28;20657;-66
2022/05/30 06:38:53;;;;;;;2.60;2.00;;;26.00;62.60;;;27.06;nan;100205.38;5007035;28;21214;-66
2022/05/30 06:41:32;;;;;;;1.73;1.67;;;27.10;59.70;;;28.19;nan;100216.78;4994180;28;20644;-66
2022/05/30 06:44:06;;;;;;;1.80;1.60;;;28.00;57.70;;;28.72;nan;100211.22;5001111;28;20640;-65
2022/05/30 06:46:36;;;;;;;1.50;1.40;;;28.50;55.00;;;29.37;nan;100212.47;5006741;28;20673;-66
2022/05/30 06:49:07;;;;;;;1.97;1.90;;;29.10;54.10;;;30.43;nan;100222.25;5006610;28;20703;-66
2022/05/30 06:51:36;;;;;;;2.50;1.60;;;30.20;51.30;;;31.20;nan;100223.69;5010804;28;20683;-66
2022/05/30 06:54:06;;;;;;;2.20;1.90;;;30.90;49.70;;;31.59;nan;100218.97;5004703;28;20645;-65
2022/05/30 06:58:11;;;;;;;2.70;2.00;;;31.40;48.30;;;31.84;nan;100226.41;5010445;28;20657;-65
2022/05/30 06:59:27;;;;;;;2.10;1.50;;;31.60;47.00;;;31.89;nan;100229.16;5009522;28;20637;-66
2022/05/30 07:01:54;;;;;;;1.73;1.73;;;31.70;46.80;;;31.86;nan;100210.81;4997105;28;20642;-66
2022/05/30 07:04:21;;;;;;;2.13;2.03;;;31.60;45.80;;;32.48;nan;100216.34;5001485;28;21107;-66
2022/05/30 07:06:48;;;;;;;3.10;1.90;;;32.20;45.30;;;32.80;nan;100219.69;5011045;28;21010;-64
2022/05/30 07:09:15;;;;;;;3.00;1.90;;;32.40;45.30;;;33.59;nan;100218.28;5006578;28;21221;-67
2022/05/30 07:11:42;;;;;;;1.80;1.70;;;33.10;44.30;;;33.29;nan;100215.53;5006921;28;20670;-65
2022/05/30 07:14:12;;;;;;;1.73;1.63;;;33.30;43.30;;;34.44;nan;100223.84;5008389;28;20684;-65
2022/05/30 07:16:39;;;;;;;2.73;1.70;;;34.10;43.30;;;35.32;nan;100220.16;5009320;28;20639;-66
2022/05/30 07:19:09;;;;;;;1.60;1.50;;;35.00;42.30;;;35.47;nan;100220.06;5009774;28;20648;-66
2022/05/30 07:21:38;;;;;;;1.93;1.83;;;35.30;41.20;;;36.46;nan;100222.09;5011584;28;20637;-65
2022/05/30 07:24:10;;;;;;;2.00;1.67;;;36.10;40.50;;;37.22;nan;100231.97;5004421;28;20638;-66
2022/05/30 07:26:38;;;;;;;1.80;1.70;;;36.90;39.80;;;37.85;nan;100224.16;5009360;28;20676;-66
2022/05/30 07:29:06;;;;;;;2.20;1.50;;;37.60;39.00;;;37.73;nan;100229.25;4992122;28;20626;-66
2022/05/30 07:31:33;;;;;;;1.20;1.20;;;37.50;38.60;;;37.98;nan;100232.38;5006793;28;20666;-65
2022/05/30 07:34:00;;;;;;;1.60;1.50;;;37.80;38.20;;;38.30;nan;100223.34;5006970;28;21454;-66
2022/05/30 07:36:30;;;;;;;1.50;1.40;;;38.20;37.90;;;38.68;nan;100226.66;5008452;28;20652;-66
2022/05/30 07:38:57;;;;;;;1.37;1.27;;;38.40;37.70;;;38.99;nan;100227.63;5006139;28;20703;-65
2022/05/30 07:41:28;;;;;;;1.70;1.60;;;38.80;37.20;;;39.08;nan;100225.75;4984959;28;20875;-65
2022/05/30 07:43:55;;;;;;;1.60;1.57;;;38.80;36.80;;;39.40;nan;100222.81;5008386;28;20638;-66
2022/05/30 07:46:22;;;;;;;1.60;1.50;;;39.20;36.60;;;39.61;nan;100227.81;4994281;28;20661;-65
2022/05/30 07:48:50;;;;;;;2.03;1.47;;;39.80;35.90;;;39.78;nan;100225.19;4993751;28;20633;-66
2022/05/30 07:51:17;;;;;;;1.20;1.20;;;39.70;35.70;;;40.06;nan;100230.16;5010458;28;20677;-66
2022/05/30 07:53:45;;;;;;;1.53;1.53;;;40.00;35.60;;;40.05;nan;100219.56;5000594;28;20638;-65
2022/05/30 07:56:16;;;;;;;1.47;1.40;;;40.00;35.40;;;39.87;nan;100224.09;5008321;28;20664;-65
2022/05/30 07:58:45;;;;;;;1.83;1.83;;;39.70;35.30;;;40.04;nan;100224.22;5009155;28;20684;-65
2022/05/30 08:01:16;;;;;;;1.90;1.80;;;39.90;35.10;;;40.04;nan;100220.69;4991725;28;20661;-65
2022/05/30 08:03:45;;;;;;;1.40;1.40;;;40.00;35.10;;;39.77;nan;100224.38;4995398;28;20660;-66
2022/05/30 08:06:28;;;;;;;1.50;1.50;;;39.60;35.20;;;39.75;nan;100215.69;4992371;28;20664;-65
2022/05/30 08:08:55;;;;;;;1.30;1.30;;;40.30;34.70;;;40.21;nan;100212.53;5009304;28;20652;-65
2022/05/30 08:11:23;;;;;;;1.23;1.23;;;40.00;34.40;;;40.58;nan;100225.72;5008607;28;20665;-66
2022/05/30 08:13:51;;;;;;;1.30;1.30;;;40.40;34.40;;;41.11;nan;100216.44;5010521;28;20624;-65
2022/05/30 08:16:26;;;;;;;1.27;1.27;;;41.00;34.10;;;41.54;nan;100214.50;4991993;28;20676;-65
2022/05/30 08:19:13;;;;;;;2.30;1.50;;;41.40;33.60;;;41.50;nan;100224.50;4990612;28;20959;-67
2022/05/30 08:22:08;;;;;;;1.50;1.40;;;41.50;33.40;;;40.94;nan;100220.81;4989922;28;21055;-66
2022/05/30 08:24:52;;;;;;;1.40;1.30;;;40.90;33.40;;;40.81;nan;100215.44;4972749;28;20645;-65
2022/05/30 08:27:21;;;;;;;1.40;1.40;;;40.70;33.30;;;39.51;nan;100207.81;5008954;28;20695;-65
2022/05/30 08:29:48;;;;;;;1.20;1.20;;;39.80;33.50;;;39.15;nan;100215.25;4991347;28;20660;-65
2022/05/30 08:32:16;;;;;;;1.30;1.30;;;39.00;33.70;;;39.61;nan;100220.44;4991847;28;21033;-65
2022/05/30 08:34:43;;;;;;;1.20;1.17;;;39.40;33.80;;;39.18;nan;100211.91;5008889;28;21280;-65
2022/05/30 08:37:11;;;;;;;1.27;1.17;;;39.00;33.60;;;38.46;nan;100210.22;5009501;28;20630;-65
2022/05/30 08:42:38;;;;;;;1.13;1.10;;;38.40;34.20;;;39.52;nan;100214.06;4924719;28;21054;-65
2022/05/30 08:45:09;;;;;;;1.30;1.20;;;39.50;33.40;;;40.21;nan;100207.88;4980206;28;20674;-65
2022/05/30 08:47:56;;;;;;;2.10;1.47;;;40.10;33.20;;;40.48;nan;100223.28;4993336;28;20634;-65
2022/05/30 08:50:52;;;;;;;1.33;1.30;;;40.60;32.80;;;40.56;nan;100222.50;5006767;28;20638;-65
2022/05/30 08:53:46;;;;;;;1.67;1.40;;;40.40;33.00;;;41.68;nan;100226.09;5001867;28;20727;-65
2022/05/30 08:56:30;;;;;;;1.10;1.10;;;41.50;32.50;;;43.55;nan;100231.66;5006387;28;20664;-66
2022/05/30 08:59:15;;;;;;;3.73;1.83;;;43.40;32.20;;;40.22;nan;100216.91;4984000;28;20642;-65
2022/05/30 09:01:50;;;;;;;1.50;1.40;;;40.80;31.50;;;36.05;nan;100212.78;5012120;28;20645;-65
2022/05/30 09:04:30;;;;;;;1.30;1.20;;;36.30;33.50;;;32.26;nan;100204.88;4985956;28;20633;-65
2022/05/30 09:07:04;;;;;;;1.30;1.20;;;32.50;36.30;;;;;;5008485;28;20633;-65
2022/05/30 09:09:43;;;;;;;1.47;1.30;;;29.90;39.30;;;;;;4990123;28;20729;-65
2022/05/30 09:12:15;;;;;;;1.43;1.33;;;30.20;39.10;;;;;;5008479;28;20776;-65
2022/05/30 09:14:50;;;;;;;5.90;1.47;;;29.90;39.10;;;;;;5008497;28;20685;-65
2022/05/30 09:17:29;;;;;;;2.40;1.30;;;29.40;39.70;;;;;;5008854;28;20636;-65
2022/05/30 09:19:58;;;;;;;2.00;1.00;;;32.30;37.80;;;;;;5010499;28;20634;-65
2022/05/30 09:22:25;;;;;;;1.00;1.00;;;36.50;35.20;;;;;;5024200;28;20642;-66
2022/05/30 09:27:38;;;;;;;2.57;1.70;;;40.10;32.80;;;;;;5019513;28;21241;-66
2022/05/30 09:30:09;;;;;;;1.20;1.10;;;41.50;32.00;;;;;;5016840;28;20626;-66
2022/05/30 09:32:49;;;;;;;0.97;0.93;;;41.20;31.80;;;;;;5024524;28;20697;-65
2022/05/30 09:35:28;;;;;;;1.07;1.07;;;42.20;31.10;;;;;;5026895;28;20660;-66
2022/05/30 09:38:06;;;;;;;0.90;0.90;;;43.00;30.60;;;;;;4998661;28;20641;-66
2022/05/30 09:40:42;;;;;;;1.00;1.00;;;43.80;30.10;;;;;;4995821;28;20733;-66
2022/05/30 09:43:20;;;;;;;1.33;1.20;;;44.50;29.90;;;;;;4998518;28;21082;-66
2022/05/30 09:45:50;;;;;;;1.53;1.43;;;44.90;30.20;;;;;;5002980;28;21392;-67
2022/05/30 09:48:19;;;;;;;1.33;1.10;;;43.50;29.70;;;;;;4997332;28;20740;-67
2022/05/30 09:50:49;;;;;;;1.13;1.13;;;44.00;30.10;;;;;;5004043;28;20911;-65
2022/05/30 09:53:47;;;;;;;1.00;1.00;;;43.90;29.80;;;;;;5007041;28;20638;-66
2022/05/30 09:56:19;;;;;;;1.07;1.07;;;44.50;29.60;;;;;;4976387;28;20697;-65
2022/05/30 09:59:01;;;;;;;1.17;1.10;;;44.90;29.30;;;;;;5018070;28;20629;-66
2022/05/30 10:01:32;;;;;;;1.37;1.27;;;44.10;30.00;;;;;;5000438;28;20638;-65
2022/05/30 10:04:18;;;;;;;1.27;1.27;;;43.10;30.30;;;;;;5003390;28;20637;-66
2022/05/30 10:07:07;;;;;;;1.20;1.20;;;41.00;30.70;;;;;;5004590;28;20668;-67
2022/05/30 10:09:38;;;;;;;1.53;1.20;;;40.50;30.90;;;;;;5008146;28;20641;-67
2022/05/30 10:12:05;;;;;;;1.83;1.10;;;40.00;31.10;;;;;;5014660;28;20654;-67
2022/05/30 10:14:34;;;;;;;2.80;1.40;;;37.20;32.10;;;;;;5010066;28;21043;-67
2022/05/30 10:17:26;;;;;;;1.30;1.20;;;33.60;34.20;;;;;;5026819;23;20700;-70
2022/05/30 10:19:53;;;;;;;;;;;31.80;35.30;;;;;;4979303;28;20478;-68
2022/05/30 10:28:36;;;;;;;;;;;26.30;39.90;;;;;;4972112;28;20500;-68
2022/05/30 10:31:28;;;;;;;1.88;1.40;;;26.10;40.80;;;;;;4964718;28;21286;-68
2022/05/30 10:34:25;;;;;;;4.73;1.10;;;26.00;41.00;;;;;;4963237;28;20208;-67
2022/05/30 10:37:11;;;;;;;1.20;1.20;;;25.80;41.10;;;;;;4955114;28;20742;-67
2022/05/30 10:40:05;;;;;;;1.27;1.17;;;25.40;42.20;;;;;;4972486;28;20730;-68
2022/05/30 10:42:50;;;;;;;1.70;1.17;;;24.90;42.30;;;;;;4973631;28;20682;-67
2022/05/30 10:45:36;;;;;;;1.33;1.20;;;24.40;43.30;;;;;;4970085;28;21066;-67
2022/05/30 10:48:05;;;;;;;1.10;1.10;;;24.10;43.90;;;;;;4967299;28;20645;-69
2022/05/30 10:50:51;;;;;;;1.87;1.30;;;23.80;43.90;;;;;;4971754;28;20653;-68
2022/05/30 10:53:21;;;;;;;1.83;1.10;;;23.80;43.90;;;;;;4972070;28;20619;-68
2022/05/30 10:55:51;;;;;;;3.33;1.30;;;23.80;44.80;;;;;;4967543;28;20678;-67
2022/05/30 10:58:25;;;;;;;;;;;23.50;45.00;;;;;;4971758;28;20476;-67
2022/05/30 11:00:55;;;;;;;;;;;22.90;46.40;;;;;;4974136;28;19922;-69
2022/05/30 11:03:45;;;;;;;;;;;22.60;47.30;;;;;;4974143;28;19925;-70
2022/05/30 11:06:14;;;;;;;;;;;22.40;47.60;;;;;;4955610;28;19932;-67
2022/05/30 11:08:52;;;;;;;;;;;22.50;47.50;;;;;;4964295;28;19922;-68
2022/05/30 11:11:23;;;;;;;;;;;22.60;46.70;;;;;;4955263;28;19922;-68
2022/05/30 11:13:55;;;;;;;;;;;22.10;47.60;;;;;;4954694;28;20009;-66
2022/05/30 11:16:31;;;;;;;;;;;21.80;48.00;;;;;;4952971;28;19923;-68
2022/05/30 11:19:40;;;;;;;;;;;21.70;48.60;;;;;;4954309;28;19930;-65
2022/05/30 11:22:14;;;;;;;;;;;22.00;47.90;;;;;;4934383;29;19922;-66
2022/05/30 11:24:41;;;;;;;;;;;22.10;46.90;;;;;;4933361;29;19937;-66
2022/05/30 11:27:19;;;;;;;;;;;22.30;47.90;;;;;;4950838;28;19926;-65
2022/05/30 11:29:58;;;;;;;;;;;22.30;46.80;;;;;;4973898;28;19922;-66
2022/05/30 11:32:43;;;;;;;;;;;22.20;47.40;;;;;;4973572;28;20410;-66
2022/05/30 11:35:13;;;;;;;;;;;22.30;46.80;;;;;;4972857;28;19961;-66
2022/05/30 11:37:39;;;;;;;;;;;22.10;47.30;;;;;;4958817;28;19928;-66